Time;durP1;ratioP1;P1;durP2;ratioP2;P2;SDS_P1;SDS_P2;PMS_P1;PMS_P2;Temp;Humidity;BMP_temperature;BMP_pressure;BME280_temperature;BME280_humidity;BME280_pressure;Samples;Min_cycle;Max_cycle;Signal;HPM_P1;HPM_P2
2021/07/16 00:01:27;;;;;;;0.20;0.20;;;;;;;14.63;59.03;97452.72;5053499;28;20045;-70
2021/07/16 00:03:53;;;;;;;0.30;0.30;;;;;;;14.73;58.62;97454.53;5053859;28;20091;-70
2021/07/16 00:06:19;;;;;;;0.57;0.57;;;;;;;14.81;58.68;97456.63;5053560;28;20407;-70
2021/07/16 00:08:44;;;;;;;0.45;0.45;;;;;;;14.92;58.32;97454.56;5053528;28;20094;-69
2021/07/16 00:11:11;;;;;;;0.10;0.10;;;;;;;15.13;58.15;97438.53;5053531;28;20052;-69
2021/07/16 00:13:37;;;;;;;0.57;0.57;;;;;;;16.01;56.04;97460.16;5053572;28;20495;-70
2021/07/16 00:16:04;;;;;;;0.65;0.65;;;;;;;17.41;52.81;97442.38;5053313;28;20088;-69
2021/07/16 00:18:30;;;;;;;1.25;0.60;;;;;;;18.85;50.01;97445.03;5053322;28;20072;-67
2021/07/16 00:20:57;;;;;;;0.10;0.10;;;;;;;20.19;47.48;97457.56;5053692;28;20475;-67
2021/07/16 00:23:23;;;;;;;0.45;0.32;;;;;;;21.28;45.85;97452.53;5053366;28;20111;-67
2021/07/16 00:25:49;;;;;;;0.10;0.10;;;;;;;22.16;44.41;97449.84;5052966;28;20503;-67
2021/07/16 00:28:15;;;;;;;2.92;0.40;;;;;;;22.99;43.37;97443.47;5052496;28;20052;-68
2021/07/16 00:30:41;;;;;;;0.30;0.30;;;;;;;23.86;42.46;97441.34;5053175;28;20044;-69
2021/07/16 00:33:07;;;;;;;1.45;0.45;;;;;;;24.65;41.54;97441.53;5053259;28;20060;-68
2021/07/16 00:35:32;;;;;;;0.32;0.32;;;;;;;25.24;40.76;97443.75;5053127;28;20041;-69
2021/07/16 00:37:58;;;;;;;2.47;1.38;;;;;;;25.77;40.70;97443.34;5053083;28;20044;-70
2021/07/16 00:40:25;;;;;;;0.43;0.28;;;;;;;26.04;40.74;97447.13;5053040;28;20076;-69
2021/07/16 00:42:51;;;;;;;0.10;0.10;;;;;;;26.38;40.24;97441.75;5052575;28;20487;-69
2021/07/16 00:45:17;;;;;;;0.52;0.52;;;;;;;26.92;39.91;97451.19;5052831;28;20527;-67
2021/07/16 00:47:44;;;;;;;0.60;0.30;;;;;;;27.47;39.33;97439.56;5053046;28;20041;-69
2021/07/16 00:50:18;;;;;;;0.43;0.43;;;;;;;28.24;38.34;97437.38;5053034;28;20143;-69
2021/07/16 00:52:44;;;;;;;0.28;0.28;;;;;;;28.98;37.58;97446.97;5052902;28;20120;-70
2021/07/16 00:56:46;;;;;;;1.35;0.85;;;;;;;29.70;36.95;97447.50;5109841;27;20950;-67
2021/07/16 00:59:14;;;;;;;0.10;0.10;;;;;;;30.11;36.86;97448.50;5110115;28;20040;-68
2021/07/16 01:01:42;;;;;;;0.25;0.25;;;;;;;30.48;36.47;97447.44;5110300;28;20036;-68
2021/07/16 01:04:09;;;;;;;0.68;0.30;;;;;;;31.12;35.80;97437.41;5110452;28;20073;-67
2021/07/16 01:06:35;;;;;;;0.13;0.13;;;;;;;31.25;35.99;97441.44;5110037;28;20036;-69
2021/07/16 01:09:00;;;;;;;0.28;0.28;;;;;;;31.55;35.40;97443.81;5110219;28;20085;-67
2021/07/16 01:11:26;;;;;;;0.40;0.40;;;;;;;32.02;35.02;97455.03;5110225;28;20512;-68
2021/07/16 01:13:53;;;;;;;0.52;0.50;;;;;;;32.41;34.66;97444.75;5114059;28;20084;-68
2021/07/16 01:16:19;;;;;;;1.35;0.65;;;;;;;32.55;34.58;97447.50;5117621;28;20089;-67
2021/07/16 01:18:45;;;;;;;0.35;0.35;;;;;;;32.81;34.23;97443.28;5111310;28;20036;-68
2021/07/16 01:21:13;;;;;;;0.10;0.10;;;;;;;33.18;34.00;97449.50;5110056;28;20446;-67
2021/07/16 01:23:40;;;;;;;0.57;0.57;;;;;;;33.64;33.54;97456.81;5109785;28;20027;-66
2021/07/16 01:26:06;;;;;;;0.10;0.10;;;;;;;34.19;33.00;97448.47;5109624;28;20563;-66
2021/07/16 01:28:36;;;;;;;0.20;0.20;;;;;;;34.70;32.09;97448.59;5109511;28;20039;-66
2021/07/16 01:31:03;;;;;;;0.10;0.10;;;;;;;35.23;31.34;97464.09;5108290;28;20055;-67
2021/07/16 01:33:29;;;;;;;0.40;0.40;;;;;;;35.63;31.01;97456.88;5109679;28;20055;-66
2021/07/16 01:35:55;;;;;;;0.20;0.20;;;;;;;35.88;31.23;97456.41;5109375;28;20032;-66
2021/07/16 01:38:20;;;;;;;1.00;0.52;;;;;;;36.03;31.34;97459.78;5109736;28;20402;-67
2021/07/16 01:40:47;;;;;;;0.20;0.20;;;;;;;36.27;31.17;97447.03;5109654;28;20046;-64
2021/07/16 01:43:13;;;;;;;1.75;0.30;;;;;;;36.57;30.63;97452.97;5109398;28;20038;-64
2021/07/16 01:45:41;;;;;;;0.20;0.17;;;;;;;36.92;30.28;97447.69;5109295;28;20114;-63
2021/07/16 01:48:09;;;;;;;0.38;0.38;;;;;;;37.25;29.62;97450.56;5109398;28;20027;-65
2021/07/16 01:50:37;;;;;;;0.15;0.15;;;;;;;37.62;29.46;97445.50;5109261;28;20055;-65
2021/07/16 01:53:04;;;;;;;0.22;0.22;;;;;;;37.86;29.25;97443.22;5109437;28;20503;-64
2021/07/16 01:55:33;;;;;;;0.10;0.10;;;;;;;38.25;29.17;97449.91;5109117;28;20051;-65
2021/07/16 01:58:00;;;;;;;0.10;0.10;;;;;;;38.62;28.75;97452.47;5107396;28;20039;-65
2021/07/16 02:00:29;;;;;;;0.17;0.10;;;;;;;39.01;28.11;97451.25;5109278;28;20036;-64
2021/07/16 02:02:59;;;;;;;0.10;0.10;;;;;;;39.45;27.79;97452.72;5109204;28;20032;-66
2021/07/16 02:05:26;;;;;;;0.20;0.20;;;;;;;39.75;27.47;97454.94;5109084;28;20063;-64
2021/07/16 02:07:57;;;;;;;1.15;0.40;;;;;;;40.00;27.30;97446.66;5097054;28;20429;-66
2021/07/16 02:10:25;;;;;;;1.30;0.63;;;;;;;40.40;26.91;97446.81;5095382;28;20032;-69
2021/07/16 02:12:52;;;;;;;0.20;0.20;;;;;;;40.98;26.42;97451.13;5095437;28;20439;-66
2021/07/16 02:15:21;;;;;;;0.20;0.20;;;;;;;41.40;26.04;97446.13;5094399;28;20023;-67
2021/07/16 02:17:47;;;;;;;0.20;0.20;;;;;;;41.53;25.87;97451.75;5095208;28;20030;-65
2021/07/16 02:20:22;;;;;;;0.17;0.17;;;;;;;41.76;25.54;97450.38;5095742;28;20032;-67
2021/07/16 02:22:48;;;;;;;0.10;0.10;;;;;;;42.05;25.51;97467.16;5095525;28;20028;-66
2021/07/16 02:25:15;;;;;;;0.20;0.20;;;;;;;42.33;25.39;97455.59;5094983;28;20036;-67
2021/07/16 02:27:43;;;;;;;0.10;0.10;;;;;;;42.46;24.90;97455.44;5094558;28;20384;-66
2021/07/16 02:30:09;;;;;;;0.10;0.10;;;;;;;42.47;25.28;97449.16;5095777;28;20032;-67
2021/07/16 02:32:35;;;;;;;0.20;0.20;;;;;;;42.61;25.13;97455.56;5095332;28;20039;-66
2021/07/16 02:35:01;;;;;;;0.30;0.30;;;;;;;42.67;25.00;97453.63;5094878;28;20036;-66
2021/07/16 02:37:26;;;;;;;1.08;0.60;;;;;;;42.78;24.86;97456.78;5094836;28;20036;-66
2021/07/16 02:39:52;;;;;;;0.20;0.20;;;;;;;43.06;24.38;97462.47;5095184;28;20486;-64
2021/07/16 02:42:18;;;;;;;0.10;0.10;;;;;;;43.30;24.24;97468.28;5095073;28;20061;-66
2021/07/16 02:44:45;;;;;;;0.20;0.20;;;;;;;43.65;23.89;97466.97;5094777;28;20460;-66
2021/07/16 02:47:11;;;;;;;0.22;0.22;;;;;;;44.00;23.65;97469.28;5094901;28;20118;-65
2021/07/16 02:49:36;;;;;;;0.10;0.10;;;;;;;44.34;23.07;97470.75;5094939;28;20059;-65
2021/07/16 02:52:02;;;;;;;0.22;0.22;;;;;;;44.60;23.11;97465.16;5094521;28;20472;-65
2021/07/16 02:54:28;;;;;;;0.13;0.13;;;;;;;44.77;22.88;97468.38;5094067;28;20035;-65
2021/07/16 02:56:54;;;;;;;0.10;0.10;;;;;;;44.82;22.62;97475.56;5093863;28;20063;-65
2021/07/16 02:59:19;;;;;;;0.22;0.22;;;;;;;45.10;22.61;97466.53;5094615;28;20097;-66
2021/07/16 03:01:59;;;;;;;0.10;0.10;;;;;;;45.40;22.30;97454.88;5093400;28;20379;-65
2021/07/16 03:04:25;;;;;;;0.20;0.20;;;;;;;45.64;22.34;97460.47;5094364;28;20024;-64
2021/07/16 03:06:51;;;;;;;0.35;0.35;;;;;;;45.82;21.93;97466.03;5094351;28;20032;-65
2021/07/16 03:09:17;;;;;;;0.20;0.20;;;;;;;45.98;21.65;97466.72;5094799;28;20036;-67
2021/07/16 03:11:43;;;;;;;0.20;0.20;;;;;;;46.09;21.39;97468.97;5094438;28;20431;-65
2021/07/16 03:14:09;;;;;;;0.60;0.60;;;;;;;45.82;21.77;97465.19;5094374;28;20032;-65
2021/07/16 03:16:35;;;;;;;0.20;0.20;;;;;;;45.32;21.98;97477.66;5095789;28;20070;-65
2021/07/16 03:19:01;;;;;;;0.20;0.20;;;;;;;45.23;21.99;97464.13;5101157;28;20032;-65
2021/07/16 03:21:27;;;;;;;0.20;0.20;;;;;;;45.55;21.62;97473.00;5105542;28;20028;-66
2021/07/16 03:23:53;;;;;;;0.10;0.10;;;;;;;46.06;20.87;97470.78;5093920;28;20065;-66
2021/07/16 03:26:19;;;;;;;0.80;0.75;;;;;;;46.31;20.77;97475.03;5093423;28;20059;-67
2021/07/16 03:28:45;;;;;;;0.40;0.40;;;;;;;46.82;20.16;97466.00;5094020;28;20063;-66
2021/07/16 03:31:11;;;;;;;0.13;0.13;;;;;;;47.12;19.55;97468.63;5093698;28;20038;-65
2021/07/16 03:33:37;;;;;;;0.38;0.38;;;;;;;46.85;19.69;97464.97;5093642;28;20195;-66
2021/07/16 03:36:04;;;;;;;0.15;0.15;;;;;;;46.60;19.43;97461.63;5093867;28;20135;-65
2021/07/16 03:38:30;;;;;;;0.65;0.38;;;;;;;46.25;19.92;97459.66;5093716;28;20024;-65
2021/07/16 03:40:58;;;;;;;0.25;0.25;;;;;;;45.94;20.05;97458.25;5093690;28;20035;-65
2021/07/16 03:43:24;;;;;;;0.10;0.10;;;;;;;45.54;20.46;97462.72;5093796;28;20077;-66
2021/07/16 03:45:51;;;;;;;0.10;0.10;;;;;;;45.39;20.30;97450.38;5093629;28;20514;-65
2021/07/16 03:48:17;;;;;;;0.25;0.25;;;;;;;45.62;19.90;97463.88;5093372;28;20040;-65
2021/07/16 03:50:43;;;;;;;0.10;0.10;;;;;;;45.94;19.80;97464.03;5093424;28;20032;-66
2021/07/16 03:53:09;;;;;;;1.27;0.43;;;;;;;45.58;19.67;97469.09;5093608;28;20035;-68
2021/07/16 03:55:34;;;;;;;0.20;0.20;;;;;;;45.33;19.78;97466.88;5093433;28;20466;-65
2021/07/16 03:58:01;;;;;;;0.13;0.13;;;;;;;45.15;19.80;97460.03;5092949;28;20128;-65
2021/07/16 04:00:30;;;;;;;0.28;0.28;;;;;;;45.24;19.77;97454.09;5093242;28;20036;-66
2021/07/16 04:03:02;;;;;;;0.10;0.10;;;;;;;45.79;19.03;97454.59;5093175;28;20084;-64
2021/07/16 04:05:30;;;;;;;0.10;0.10;;;;;;;46.22;18.33;97456.97;5093314;28;20498;-65
2021/07/16 04:08:05;;;;;;;0.40;0.40;;;;;;;46.51;18.49;97458.84;5093267;28;20391;-64
2021/07/16 04:10:35;;;;;;;0.20;0.20;;;;;;;46.80;18.19;97440.38;5094184;28;20403;-64
2021/07/16 04:13:07;;;;;;;0.20;0.20;;;;;;;46.87;17.77;97444.94;5093116;28;20032;-65
2021/07/16 04:15:34;;;;;;;0.40;0.40;;;;;;;46.65;18.04;97446.34;5092841;28;20040;-65
2021/07/16 04:18:01;;;;;;;0.63;0.20;;;;;;;46.22;18.20;97442.47;5092828;28;20039;-66
2021/07/16 04:20:28;;;;;;;0.20;0.20;;;;;;;45.40;18.81;97446.19;5091599;28;20047;-66
2021/07/16 04:22:55;;;;;;;0.20;0.20;;;;;;;44.77;19.33;97445.19;5092767;28;20111;-65
2021/07/16 04:25:22;;;;;;;0.20;0.20;;;;;;;44.22;19.32;97455.25;5092704;28;20040;-66
2021/07/16 04:27:50;;;;;;;2.47;0.30;;;;;;;43.79;19.39;97433.59;5092146;28;20047;-65
2021/07/16 04:30:18;;;;;;;0.13;0.13;;;;;;;43.66;19.48;97439.66;5092264;28;20036;-65
2021/07/16 04:32:45;;;;;;;0.40;0.35;;;;;;;43.79;19.15;97445.16;5092888;28;20035;-65
2021/07/16 04:35:14;;;;;;;0.30;0.30;;;;;;;43.79;18.92;97445.16;5092790;28;20036;-66
2021/07/16 04:37:40;;;;;;;0.10;0.10;;;;;;;44.13;18.52;97440.88;5092903;28;20458;-66
2021/07/16 04:40:08;;;;;;;0.10;0.10;;;;;;;44.76;18.19;97434.13;5092518;28;20035;-65
2021/07/16 04:42:34;;;;;;;0.95;0.93;;;;;;;45.31;17.86;97439.19;5092441;28;20031;-65
2021/07/16 04:45:00;;;;;;;0.20;0.20;;;;;;;45.64;17.60;97440.97;5092397;28;20039;-66
2021/07/16 04:47:26;;;;;;;0.20;0.20;;;;;;;45.61;17.39;97456.47;5092605;28;20176;-66
2021/07/16 04:49:51;;;;;;;0.30;0.30;;;;;;;45.84;17.15;97453.91;5091359;28;20371;-64
2021/07/16 04:52:17;;;;;;;0.77;0.57;;;;;;;46.32;16.85;97444.72;5092103;28;20042;-64
2021/07/16 04:54:43;;;;;;;0.20;0.20;;;;;;;46.77;16.47;97449.34;5092385;28;20146;-65
2021/07/16 04:57:09;;;;;;;0.20;0.20;;;;;;;46.95;16.06;97442.34;5091966;28;20028;-64
2021/07/16 04:59:38;;;;;;;2.90;0.25;;;;;;;47.08;16.02;97436.91;5092742;28;20543;-65
2021/07/16 05:02:05;;;;;;;0.80;0.77;;;;;;;46.79;16.27;97449.63;5092377;28;20485;-65
2021/07/16 05:04:32;;;;;;;1.02;0.45;;;;;;;46.69;16.30;97446.91;5089762;28;20040;-66
2021/07/16 05:06:58;;;;;;;1.25;1.15;;;;;;;46.72;16.27;97450.09;5091886;28;20032;-66
2021/07/16 05:09:24;;;;;;;0.30;0.30;;;;;;;46.68;16.27;97456.91;5091684;28;20398;-65
2021/07/16 05:11:51;;;;;;;0.45;0.45;;;;;;;46.73;16.36;97449.56;5091740;28;20032;-65
2021/07/16 05:14:17;;;;;;;0.28;0.28;;;;;;;47.19;15.69;97454.44;5090783;28;20042;-65
2021/07/16 05:16:43;;;;;;;0.25;0.25;;;;;;;47.58;15.50;97455.97;5092370;28;20115;-65
2021/07/16 05:19:09;;;;;;;0.30;0.30;;;;;;;47.62;15.58;97450.72;5092042;28;20077;-65
2021/07/16 05:21:34;;;;;;;0.25;0.25;;;;;;;47.71;15.62;97446.78;5092426;28;20523;-66
2021/07/16 05:24:01;;;;;;;0.60;0.32;;;;;;;47.70;15.44;97445.97;5094037;28;20477;-67
2021/07/16 05:26:27;;;;;;;0.30;0.30;;;;;;;47.30;15.69;97436.25;5104350;28;20047;-65
2021/07/16 05:28:53;;;;;;;0.20;0.20;;;;;;;46.89;16.24;97442.31;5092373;28;20036;-67
2021/07/16 05:31:19;;;;;;;0.68;0.65;;;;;;;46.59;16.24;97442.59;5092391;28;20036;-66
2021/07/16 05:33:46;;;;;;;1.92;0.60;;;;;;;45.37;17.11;97438.50;5091841;28;20044;-65
2021/07/16 05:36:12;;;;;;;0.60;0.60;;;;;;;43.71;18.25;97453.44;5092000;28;20040;-65
2021/07/16 05:38:38;;;;;;;0.60;0.60;;;;;;;43.02;18.13;97444.53;5091883;28;20028;-65
2021/07/16 05:41:08;;;;;;;0.25;0.25;;;;;;;43.17;17.82;97442.53;5091699;28;20036;-66
2021/07/16 05:43:35;;;;;;;0.60;0.40;;;;;;;43.38;17.70;97442.72;5095853;28;20031;-66
2021/07/16 05:46:03;;;;;;;3.80;1.48;;;;;;;43.67;17.41;97458.59;5095516;28;20047;-65
2021/07/16 05:48:32;;;;;;;0.20;0.20;;;;;;;43.45;17.01;97448.16;5095365;28;20414;-66
2021/07/16 05:51:00;;;;;;;0.20;0.20;;;;;;;42.57;17.72;97437.59;5095543;28;20040;-65
2021/07/16 05:53:27;;;;;;;0.63;0.50;;;;;;;40.81;18.88;97441.09;5095266;28;20043;-65
2021/07/16 05:55:53;;;;;;;6.43;1.10;;;;;;;38.37;20.95;97440.53;5095405;28;20084;-66
2021/07/16 05:58:18;;;;;;;0.22;0.22;;;;;;;36.23;22.50;97448.38;5094899;28;20070;-65
2021/07/16 06:00:44;;;;;;;0.63;0.40;;;;;;;34.48;23.65;97448.94;5095405;28;20054;-65
2021/07/16 06:03:10;;;;;;;0.47;0.45;;;;;;;32.81;25.03;97443.28;5095466;28;20063;-65
2021/07/16 06:05:36;;;;;;;0.10;0.10;;;;;;;31.17;26.12;97451.16;5094877;28;20036;-65
2021/07/16 06:08:03;;;;;;;0.50;0.32;;;;;;;29.90;26.91;97444.38;5095108;28;20060;-65
2021/07/16 06:10:30;;;;;;;0.10;0.10;;;;;;;29.02;27.35;97444.19;5090592;28;20496;-65
2021/07/16 06:12:56;;;;;;;0.10;0.10;;;;;;;28.31;27.74;97437.44;5103331;28;20402;-65
2021/07/16 06:15:23;;;;;;;0.10;0.10;;;;;;;27.83;27.60;97439.25;5095193;28;20119;-65
2021/07/16 06:17:49;;;;;;;0.15;0.15;;;;;;;27.31;27.68;97433.28;5095553;28;20466;-65
2021/07/16 06:20:16;;;;;;;0.15;0.15;;;;;;;26.96;27.51;97423.91;5095536;28;20128;-66
2021/07/16 06:22:44;;;;;;;0.25;0.25;;;;;;;26.78;27.27;97420.81;5094805;28;20032;-65
2021/07/16 06:25:11;;;;;;;0.10;0.10;;;;;;;26.49;27.24;97431.53;5094558;28;20123;-64
2021/07/16 06:27:38;;;;;;;0.70;0.70;;;;;;;26.14;26.93;97432.47;5094772;28;20127;-65
2021/07/16 06:30:05;;;;;;;0.47;0.20;;;;;;;25.77;27.07;97434.91;5094958;28;20031;-64
2021/07/16 06:32:31;;;;;;;0.00;0.00;;;;;;;25.47;26.89;97439.09;5094822;28;20440;-65
2021/07/16 06:34:57;;;;;;;3.40;0.45;;;;;;;25.30;26.82;97436.66;5094652;28;20055;-65
2021/07/16 06:37:23;;;;;;;0.10;0.10;;;;;;;25.13;26.89;97441.50;5094878;28;20111;-65
2021/07/16 06:39:48;;;;;;;0.20;0.20;;;;;;;25.05;26.69;97439.69;5094754;28;20032;-66
2021/07/16 06:42:14;;;;;;;2.03;0.40;;;;;;;25.00;26.53;97431.56;5094693;28;20024;-65
2021/07/16 06:44:40;;;;;;;0.30;0.30;;;;;;;24.88;26.72;97428.84;5094789;28;20045;-64
2021/07/16 06:47:05;;;;;;;1.02;1.02;;;;;;;24.77;26.47;97422.97;5094705;28;20040;-65
2021/07/16 06:49:31;;;;;;;0.20;0.20;;;;;;;24.79;26.25;97424.25;5094462;28;20513;-67
2021/07/16 06:51:59;;;;;;;0.35;0.35;;;;;;;24.76;26.38;97419.31;5094260;28;20024;-64
2021/07/16 06:54:25;;;;;;;0.10;0.10;;;;;;;24.72;26.15;97429.69;5093939;28;20069;-65
2021/07/16 06:56:52;;;;;;;0.15;0.15;;;;;;;24.64;26.34;97427.84;5093856;28;20032;-66
2021/07/16 06:59:18;;;;;;;0.10;0.10;;;;;;;24.57;26.06;97417.25;5094439;28;20032;-64
2021/07/16 07:01:44;;;;;;;0.10;0.10;;;;;;;24.52;26.20;97417.50;5094371;28;20028;-66
2021/07/16 07:04:10;;;;;;;0.10;0.10;;;;;;;24.49;26.10;97418.22;5093959;28;20024;-68
2021/07/16 07:06:35;;;;;;;0.10;0.10;;;;;;;24.43;26.09;97419.69;5094216;28;20032;-66
2021/07/16 07:09:41;;;;;;;0.20;0.20;;;;;;;24.36;26.00;97413.88;5093917;28;20040;-64
2021/07/16 07:16:15;;;;;;;0.38;0.38;;;;;;;24.44;25.81;97410.06;5080176;28;20051;-65
2021/07/16 07:26:06;;;;;;;0.17;0.17;;;;;;;24.61;25.57;97409.75;5053214;28;20048;-64
2021/07/16 07:35:58;;;;;;;0.30;0.30;;;;;;;24.65;25.91;97396.63;5053124;28;20035;-66
2021/07/16 07:45:51;;;;;;;0.20;0.20;;;;;;;25.02;25.33;97396.31;5052635;28;20048;-64
2021/07/16 07:48:56;;;;;;;0.45;0.15;;;;;;;24.99;25.63;97390.63;5052674;28;20067;-67
2021/07/16 07:52:02;;;;;;;0.10;0.10;;;;;;;25.08;25.74;97391.22;5053369;28;20036;-65
2021/07/16 07:55:07;;;;;;;0.25;0.20;;;;;;;25.38;25.28;97387.91;5052559;28;20565;-65
2021/07/16 07:58:13;;;;;;;0.10;0.10;;;;;;;25.70;25.30;97384.97;5055092;28;20047;-65
2021/07/16 08:01:19;;;;;;;0.20;0.20;;;;;;;25.93;24.80;97381.38;5066783;28;20039;-65
2021/07/16 08:04:24;;;;;;;0.10;0.10;;;;;;;26.15;24.70;97383.47;5072831;28;20150;-66
2021/07/16 08:07:30;;;;;;;0.45;0.43;;;;;;;26.16;24.87;97384.28;5072320;28;20037;-66
2021/07/16 08:10:35;;;;;;;0.65;0.65;;;;;;;26.12;25.04;97380.56;5066845;28;20089;-67
2021/07/16 08:13:41;;;;;;;0.45;0.28;;;;;;;26.10;25.57;97382.97;5072840;28;20036;-63
2021/07/16 08:16:46;;;;;;;0.20;0.20;;;;;;;26.30;25.37;97383.75;5073728;28;20123;-64
2021/07/16 08:19:52;;;;;;;0.32;0.22;;;;;;;26.39;25.30;97387.91;5076694;28;20054;-65
2021/07/16 08:22:57;;;;;;;0.75;0.30;;;;;;;26.46;25.24;97387.25;5090992;28;20029;-66
2021/07/16 08:26:03;;;;;;;0.52;0.50;;;;;;;26.52;25.35;97388.53;5073975;28;20059;-66
2021/07/16 08:29:08;;;;;;;0.17;0.17;;;;;;;26.53;25.30;97381.75;5072572;28;20046;-66
2021/07/16 08:32:14;;;;;;;0.65;0.40;;;;;;;26.63;25.60;97383.09;5092958;28;20024;-65
2021/07/16 08:35:19;;;;;;;0.60;0.32;;;;;;;26.59;25.30;97382.25;5073592;28;20040;-65
2021/07/16 08:38:24;;;;;;;0.20;0.20;;;;;;;26.23;26.08;97387.22;5085022;28;20040;-65
2021/07/16 08:41:30;;;;;;;0.10;0.10;;;;;;;25.83;26.40;97386.44;5077650;28;20035;-65
2021/07/16 08:44:35;;;;;;;0.10;0.10;;;;;;;25.67;26.99;97396.94;5074968;28;20127;-66
2021/07/16 08:47:41;;;;;;;0.17;0.17;;;;;;;25.61;26.65;97396.44;5083821;28;20036;-65
2021/07/16 08:50:47;;;;;;;2.20;0.93;;;;;;;25.62;26.74;97394.44;5084323;28;20032;-64
2021/07/16 08:57:28;;;;;;;0.00;0.00;;;;;;;25.59;27.14;97395.16;5046869;28;20103;-66
2021/07/16 09:07:29;;;;;;;0.28;0.20;;;;;;;25.73;26.58;97378.59;5029979;28;20470;-65
2021/07/16 09:10:44;;;;;;;0.25;0.25;;;;;;;25.73;27.03;97372.16;5030602;28;20407;-63
2021/07/16 09:13:49;;;;;;;0.85;0.82;;;;;;;25.71;27.09;97372.53;5035940;28;20510;-63
2021/07/16 09:16:55;;;;;;;1.65;0.52;;;;;;;25.78;26.67;97372.69;5048385;28;20029;-64
2021/07/16 09:20:16;;;;;;;0.30;0.30;;;;;;;25.81;26.83;97374.75;5035546;28;20472;-65
2021/07/16 09:23:27;;;;;;;0.20;0.20;;;;;;;25.85;26.72;97375.66;5049500;28;20120;-64
2021/07/16 09:30:06;;;;;;;0.00;0.00;;;;;;;25.71;27.39;97373.34;5034712;28;20044;-64
2021/07/16 09:36:42;;;;;;;1.20;0.20;;;;;;;25.66;27.22;97367.19;5044538;28;20059;-65
2021/07/16 09:39:48;;;;;;;1.30;1.20;;;;;;;25.61;27.46;97362.69;5032381;28;20042;-65
2021/07/16 09:42:53;;;;;;;3.63;1.17;;;;;;;25.42;27.83;97369.13;5033946;28;20033;-64
2021/07/16 09:46:02;;;;;;;0.38;0.38;;;;;;;25.33;27.90;97360.09;5048742;28;20037;-64
2021/07/16 09:49:07;;;;;;;0.32;0.17;;;;;;;25.35;27.76;97358.56;5041234;28;20037;-67
2021/07/16 09:55:49;;;;;;;0.73;0.10;;;;;;;25.29;27.93;97364.78;5041200;28;20064;-66
2021/07/16 09:59:04;;;;;;;0.20;0.20;;;;;;;25.23;28.10;97357.84;5076251;28;20099;-65
2021/07/16 10:01:49;;;;;;;;;;;;;;;25.15;28.33;97354.88;5077651;28;20039;-66
2021/07/16 10:08:19;;;;;;;0.10;0.10;;;;;;;24.96;28.34;97340.81;5073830;28;20044;-65
2021/07/16 10:11:24;;;;;;;0.10;0.10;;;;;;;25.01;28.25;97346.97;5071848;28;20040;-67
2021/07/16 10:21:20;;;;;;;0.20;0.20;;;;;;;24.80;29.06;97343.66;5077439;28;20044;-65
2021/07/16 10:24:26;;;;;;;0.00;0.00;;;;;;;24.72;29.04;97342.66;5080712;28;20043;-65
2021/07/16 10:27:31;;;;;;;0.63;0.47;;;;;;;24.57;28.97;97352.72;5070775;28;20498;-63
2021/07/16 10:34:16;;;;;;;0.20;0.10;;;;;;;24.28;29.72;97346.38;5071869;28;20056;-65
2021/07/16 10:37:25;;;;;;;0.10;0.10;;;;;;;24.27;29.63;97347.53;5080230;28;20119;-65
2021/07/16 10:43:27;;;;;;;0.10;0.10;;;;;;;24.64;29.07;97341.66;5072977;28;20120;-63
2021/07/16 10:46:48;;;;;;;0.80;0.52;;;;;;;24.81;29.00;97343.28;5084908;28;20084;-65
2021/07/16 10:49:53;;;;;;;2.28;0.68;;;;;;;25.04;28.43;97345.38;5082022;28;20036;-66
2021/07/16 12:29:59;;;;;;;0.13;0.13;;;;;;;25.91;28.89;97305.03;5045567;28;20608;-64
2021/07/16 12:33:00;;;;;;;0.10;0.10;;;;;;;25.92;28.86;97306.66;5059092;28;20057;-63
2021/07/16 12:35:26;;;;;;;0.10;0.10;;;;;;;25.86;29.46;97304.16;5035234;28;20055;-65
2021/07/16 12:38:14;;;;;;;0.65;0.65;;;;;;;25.89;29.41;97303.41;5048388;28;20647;-65
2021/07/16 12:40:42;;;;;;;0.20;0.20;;;;;;;25.96;29.49;97304.75;5050403;28;20051;-64
2021/07/16 12:43:15;;;;;;;0.10;0.10;;;;;;;25.94;29.58;97309.91;5032296;28;20037;-64
2021/07/16 12:45:45;;;;;;;1.07;0.60;;;;;;;26.00;29.27;97308.44;5038324;28;20087;-62
2021/07/16 12:48:35;;;;;;;0.40;0.17;;;;;;;26.14;29.02;97308.69;5052144;28;20737;-66
2021/07/16 12:51:14;;;;;;;0.20;0.20;;;;;;;26.33;28.91;97309.84;5051964;28;20124;-64
2021/07/16 12:53:51;;;;;;;1.42;1.10;;;;;;;26.47;29.22;97304.44;5062624;28;20127;-62
2021/07/16 12:56:20;;;;;;;0.93;0.55;;;;;;;26.56;28.68;97315.41;5052864;28;20036;-65
2021/07/16 12:58:47;;;;;;;0.30;0.20;;;;;;;26.55;28.87;97305.38;5057814;28;20036;-63
2021/07/16 13:01:22;;;;;;;0.20;0.20;;;;;;;26.42;29.34;97301.13;5060391;28;20056;-65
2021/07/16 13:03:49;;;;;;;0.10;0.10;;;;;;;26.31;29.35;97303.75;5060183;28;20504;-62
2021/07/16 13:06:30;;;;;;;0.45;0.45;;;;;;;26.29;29.48;97294.88;5063278;28;20040;-62
2021/07/16 13:09:21;;;;;;;1.33;0.90;;;;;;;26.39;29.20;97285.81;5063579;28;20079;-62
2021/07/16 13:12:39;;;;;;;0.10;0.10;;;;;;;26.50;29.50;97292.44;5056041;28;20045;-63
2021/07/16 13:15:07;;;;;;;0.65;0.32;;;;;;;26.46;29.14;97285.09;5052924;28;20033;-64
2021/07/16 13:17:34;;;;;;;0.20;0.20;;;;;;;26.37;29.75;97283.38;5051452;28;20052;-63
2021/07/16 13:20:20;;;;;;;0.20;0.20;;;;;;;26.28;29.50;97279.19;5050564;28;20534;-64
2021/07/16 13:22:47;;;;;;;0.20;0.20;;;;;;;26.18;29.71;97278.63;5035148;28;20116;-64
2021/07/16 13:25:18;;;;;;;0.30;0.30;;;;;;;26.15;30.11;97278.59;5036325;28;20125;-65
2021/07/16 13:27:46;;;;;;;0.25;0.10;;;;;;;26.13;30.11;97276.13;5048996;28;20037;-66
2021/07/16 13:30:13;;;;;;;0.52;0.52;;;;;;;26.14;30.22;97274.94;5052371;28;20045;-65
2021/07/16 13:32:42;;;;;;;0.80;0.80;;;;;;;26.12;29.89;97270.88;5008864;28;20049;-64
2021/07/16 13:35:09;;;;;;;0.10;0.10;;;;;;;26.10;30.29;97267.63;5036327;28;20041;-62
2021/07/16 13:37:35;;;;;;;0.40;0.40;;;;;;;26.06;30.41;97267.59;5038905;28;20041;-63
2021/07/16 13:40:03;;;;;;;0.60;0.57;;;;;;;26.07;30.29;97266.38;5044053;28;20068;-64
2021/07/16 13:42:29;;;;;;;0.30;0.30;;;;;;;26.08;30.60;97270.03;5027795;28;20045;-62
2021/07/16 13:44:56;;;;;;;0.17;0.17;;;;;;;26.05;30.67;97271.59;5029879;28;20045;-65
2021/07/16 13:48:02;;;;;;;0.30;0.30;;;;;;;25.99;30.56;97259.81;5031053;28;20068;-64
2021/07/16 13:50:28;;;;;;;0.10;0.10;;;;;;;25.94;30.74;97271.38;5026988;28;20587;-65
2021/07/16 13:52:53;;;;;;;0.10;0.10;;;;;;;25.92;31.24;97265.28;5021497;28;20083;-68
2021/07/16 13:55:19;;;;;;;0.60;0.60;;;;;;;25.90;31.32;97264.88;5035055;28;20117;-63
2021/07/16 13:57:45;;;;;;;0.20;0.20;;;;;;;25.88;31.08;97261.59;5028795;28;20037;-67
2021/07/16 14:00:50;;;;;;;0.10;0.10;;;;;;;25.83;31.03;97248.66;5028958;28;20403;-63
2021/07/16 14:03:56;;;;;;;0.70;0.28;;;;;;;25.71;31.42;97252.47;5028794;28;20083;-61
2021/07/16 14:06:37;;;;;;;0.43;0.43;;;;;;;25.60;31.65;97257.06;5030229;28;20045;-61
2021/07/16 14:09:03;;;;;;;0.30;0.30;;;;;;;25.51;31.83;97257.34;5033585;28;20041;-64
2021/07/16 14:11:28;;;;;;;1.08;0.25;;;;;;;25.36;32.17;97261.03;5042202;28;20477;-61
2021/07/16 14:13:54;;;;;;;2.40;0.30;;;;;;;25.14;32.28;97263.38;5040053;28;20040;-62
2021/07/16 14:16:20;;;;;;;0.10;0.10;;;;;;;24.97;32.34;97269.41;5037313;28;20053;-62
2021/07/16 14:18:46;;;;;;;0.52;0.30;;;;;;;24.91;32.27;97259.66;5039583;28;20037;-64
2021/07/16 14:21:12;;;;;;;3.20;0.73;;;;;;;24.86;32.77;97263.56;5040541;28;20078;-62
2021/07/16 14:23:38;;;;;;;0.20;0.20;;;;;;;24.80;32.75;97259.44;5041993;28;20549;-65
2021/07/16 14:26:06;;;;;;;0.43;0.38;;;;;;;24.70;32.91;97266.44;5037345;28;20068;-64
2021/07/16 14:28:32;;;;;;;0.60;0.30;;;;;;;24.60;33.05;97267.00;5036200;28;20041;-66
2021/07/16 14:31:01;;;;;;;0.20;0.20;;;;;;;24.49;32.87;97261.91;5053300;28;20056;-65
2021/07/16 14:33:27;;;;;;;0.03;0.03;;;;;;;24.36;32.99;97263.22;5058721;28;20092;-66
2021/07/16 14:35:53;;;;;;;0.30;0.30;;;;;;;24.25;33.45;97265.75;5059255;28;20123;-64
2021/07/16 14:38:19;;;;;;;0.20;0.20;;;;;;;24.13;33.28;97265.84;5059931;28;20521;-66
2021/07/16 14:40:45;;;;;;;0.40;0.40;;;;;;;24.03;33.39;97267.22;5059142;28;20029;-67
2021/07/16 14:43:10;;;;;;;0.20;0.20;;;;;;;23.99;33.58;97273.91;5058145;28;20123;-64
2021/07/16 14:45:36;;;;;;;0.15;0.15;;;;;;;23.89;33.54;97267.66;5059441;28;20056;-65
2021/07/16 14:48:02;;;;;;;0.22;0.15;;;;;;;23.84;33.94;97273.50;5062719;28;20044;-64
2021/07/16 14:50:28;;;;;;;0.15;0.15;;;;;;;23.80;33.70;97276.19;5059528;28;20028;-65
2021/07/16 14:53:34;;;;;;;0.00;0.00;;;;;;;23.74;34.04;97268.44;5058971;28;20067;-64